Live from Altenrhein
LIVE
LSZR 231620Z 29007KT 9999 FEW070 24/11 Q1019 NOSIG RMK N

People´s C-Office:

T: +41 (0)71 858 51 65

E: c-office@peoples.ch

How to find us

Convenient to reach, easy to find.

The airport is only 2 kilometres from the motorway exit Rheineck-Thal on the A1 motorway Zurich-Winterthur / St. Margarethen. When you get off the motorway, follow the "Airport" signs.

 

If you are travelling to the airport from Germany or from Austria, follow the A14 motorway to the A1 motorway, and if you are travelling from Liechtenstein, follow the A13 motorway to the A1 motorway.

You can find directions and maps by using the route planner.

 

Once you have arrived in Altenrhein, you can park your car as long as necessary in the airport parking facilities P1 (in front of the terminal building) or P2 (approx. 200 metres away). For parking prices please click here.